createdAt,value
2022-07-29T00:01:20.172Z,17.06
2022-07-29T00:03:48.933Z,17.02
2022-07-29T00:06:17.323Z,17.02
2022-07-29T00:08:45.069Z,17.04
2022-07-29T00:11:13.062Z,16.96
2022-07-29T00:13:40.912Z,16.93
2022-07-29T00:16:08.695Z,16.91
2022-07-29T00:18:36.510Z,16.92
2022-07-29T00:21:04.308Z,16.90
2022-07-29T00:23:36.480Z,16.88
2022-07-29T00:26:04.625Z,16.85
2022-07-29T00:28:32.494Z,16.84
2022-07-29T00:31:00.548Z,16.83
2022-07-29T00:33:29.205Z,16.80
2022-07-29T00:35:57.255Z,16.78
2022-07-29T00:38:25.186Z,16.78
2022-07-29T00:40:53.443Z,16.80
2022-07-29T00:43:21.217Z,16.77
2022-07-29T00:45:49.021Z,16.76
2022-07-29T00:48:16.710Z,16.76
2022-07-29T00:50:44.478Z,16.76
2022-07-29T00:53:13.096Z,16.79
2022-07-29T00:55:40.949Z,16.79
2022-07-29T00:58:09.606Z,16.75
2022-07-29T01:00:37.977Z,16.77
2022-07-29T01:03:05.887Z,16.80
2022-07-29T01:05:49.926Z,16.81
2022-07-29T01:08:21.199Z,16.82
2022-07-29T01:10:50.341Z,16.83
2022-07-29T01:13:18.930Z,16.80
2022-07-29T01:16:14.013Z,16.75
2022-07-29T01:18:48.067Z,16.65
2022-07-29T01:21:43.395Z,16.61
2022-07-29T01:24:59.735Z,16.60
2022-07-29T01:28:21.458Z,16.50
2022-07-29T01:30:54.679Z,16.42
2022-07-29T01:33:44.931Z,16.35
2022-07-29T01:36:22.909Z,16.25
2022-07-29T01:39:21.050Z,16.17
2022-07-29T01:42:05.615Z,16.13
2022-07-29T01:44:42.435Z,16.14
2022-07-29T01:47:18.493Z,16.13
2022-07-29T01:49:52.455Z,16.09
2022-07-29T01:52:28.707Z,16.07
2022-07-29T01:55:02.690Z,16.01
2022-07-29T01:57:34.570Z,15.99
2022-07-29T02:00:05.314Z,16.02
2022-07-29T02:02:44.652Z,15.99
2022-07-29T02:05:17.119Z,15.90
2022-07-29T02:07:48.282Z,15.86
2022-07-29T02:10:25.847Z,15.89
2022-07-29T02:12:56.884Z,15.92
2022-07-29T02:15:29.468Z,15.92
2022-07-29T02:18:16.480Z,15.87
2022-07-29T02:20:52.818Z,15.82
2022-07-29T02:23:23.904Z,15.78
2022-07-29T02:25:57.950Z,15.75
2022-07-29T02:28:29.446Z,15.65
2022-07-29T02:31:01.931Z,15.65
2022-07-29T02:33:32.874Z,15.62
2022-07-29T02:36:02.579Z,15.59
2022-07-29T02:38:50.028Z,15.61
2022-07-29T02:41:58.313Z,15.59
2022-07-29T02:44:31.237Z,15.53
2022-07-29T02:47:22.882Z,15.44
2022-07-29T02:50:01.162Z,15.37
2022-07-29T02:53:04.410Z,15.34
2022-07-29T02:55:40.404Z,15.29
2022-07-29T02:58:29.646Z,15.29
2022-07-29T03:01:05.405Z,15.29
2022-07-29T03:03:38.862Z,15.29
2022-07-29T03:06:08.503Z,15.28
2022-07-29T03:08:37.877Z,15.25
2022-07-29T03:11:06.240Z,15.16
2022-07-29T03:13:35.814Z,15.16
2022-07-29T03:16:04.523Z,15.18
2022-07-29T03:18:33.258Z,15.19
2022-07-29T03:21:01.218Z,15.12
2022-07-29T03:23:35.241Z,15.01
2022-07-29T03:26:04.983Z,14.88
2022-07-29T03:28:32.742Z,14.88
2022-07-29T03:31:02.065Z,14.84
2022-07-29T03:33:31.274Z,14.78
2022-07-29T03:35:59.327Z,14.79
2022-07-29T03:38:31.947Z,14.77
2022-07-29T03:41:07.024Z,14.68
2022-07-29T03:43:49.124Z,14.61
2022-07-29T03:46:19.375Z,14.60
2022-07-29T03:48:53.854Z,14.59
2022-07-29T03:51:34.049Z,14.55
2022-07-29T03:54:09.667Z,14.46
2022-07-29T03:56:49.063Z,14.44
2022-07-29T03:59:20.425Z,14.44
2022-07-29T04:01:49.624Z,14.42
2022-07-29T04:04:18.159Z,14.40
2022-07-29T04:06:48.180Z,14.39
2022-07-29T04:09:16.207Z,14.41
2022-07-29T04:11:59.176Z,14.38
2022-07-29T04:14:33.912Z,14.36
2022-07-29T04:17:03.782Z,14.40
2022-07-29T04:19:32.709Z,14.47
2022-07-29T04:22:01.895Z,14.54
2022-07-29T04:24:29.829Z,14.60
2022-07-29T04:26:57.551Z,14.60
2022-07-29T04:29:25.584Z,14.66
2022-07-29T04:31:53.443Z,14.75
2022-07-29T04:34:21.346Z,14.84
2022-07-29T04:36:49.238Z,14.85
2022-07-29T04:39:22.666Z,14.74
2022-07-29T04:41:52.514Z,14.64
2022-07-29T04:44:28.649Z,14.66
2022-07-29T04:46:58.482Z,14.70
2022-07-29T04:49:26.465Z,14.67
2022-07-29T04:51:54.573Z,14.64
2022-07-29T04:54:22.493Z,14.68
2022-07-29T04:56:50.205Z,14.66
2022-07-29T04:59:17.933Z,14.77
2022-07-29T05:01:45.706Z,14.87
2022-07-29T05:04:14.090Z,14.97
2022-07-29T05:06:41.963Z,15.07
2022-07-29T05:09:09.719Z,15.14
2022-07-29T05:11:37.390Z,15.12
2022-07-29T05:14:05.098Z,15.18
2022-07-29T05:16:32.810Z,15.29
2022-07-29T05:19:00.553Z,15.43
2022-07-29T05:21:28.244Z,15.50
2022-07-29T05:23:56.067Z,15.50
2022-07-29T05:26:23.807Z,15.57
2022-07-29T05:28:51.639Z,15.66
2022-07-29T05:31:19.574Z,15.68
2022-07-29T05:33:47.366Z,15.73
2022-07-29T05:36:15.110Z,15.84
2022-07-29T05:38:42.906Z,15.94
2022-07-29T05:41:10.664Z,16.04
2022-07-29T05:43:38.586Z,16.12
2022-07-29T05:46:06.383Z,16.20
2022-07-29T05:48:34.148Z,16.23
2022-07-29T05:51:02.295Z,16.31
2022-07-29T05:53:30.038Z,16.38
2022-07-29T05:55:57.806Z,16.39
2022-07-29T05:58:25.618Z,16.41
2022-07-29T06:00:53.857Z,16.43
2022-07-29T06:03:21.573Z,16.53
2022-07-29T06:05:49.307Z,16.63
2022-07-29T06:08:17.028Z,16.81
2022-07-29T06:10:44.959Z,16.95
2022-07-29T06:13:13.740Z,17.08
2022-07-29T06:15:41.838Z,17.26
2022-07-29T06:18:11.120Z,17.48
2022-07-29T06:20:39.066Z,17.67
2022-07-29T06:23:07.097Z,17.85
2022-07-29T06:25:37.577Z,18.05
2022-07-29T06:28:05.465Z,18.24
2022-07-29T06:30:33.792Z,18.35
2022-07-29T06:33:02.869Z,18.45
2022-07-29T06:35:39.042Z,18.61
2022-07-29T06:38:30.344Z,18.78
2022-07-29T06:41:00.938Z,18.96
2022-07-29T06:43:51.917Z,19.13
2022-07-29T06:46:21.649Z,19.23
2022-07-29T06:48:50.244Z,19.30
2022-07-29T06:51:22.759Z,19.32
2022-07-29T06:53:58.082Z,19.35
2022-07-29T06:56:26.547Z,19.34
2022-07-29T06:58:54.258Z,19.42
2022-07-29T07:01:22.160Z,19.57
2022-07-29T07:03:50.700Z,19.70
2022-07-29T07:06:18.473Z,19.85
2022-07-29T07:08:46.368Z,19.84
2022-07-29T07:11:14.189Z,19.81
2022-07-29T07:13:41.970Z,19.84
2022-07-29T07:16:09.930Z,19.82
2022-07-29T07:18:37.673Z,19.74
2022-07-29T07:21:06.630Z,19.75
2022-07-29T07:23:34.282Z,19.89
2022-07-29T07:26:02.006Z,20.03
2022-07-29T07:28:30.246Z,20.17
2022-07-29T07:30:57.983Z,20.27
2022-07-29T07:33:25.758Z,20.25
2022-07-29T07:35:53.517Z,20.24
2022-07-29T07:38:21.211Z,20.24
2022-07-29T07:40:48.951Z,20.22
2022-07-29T07:43:16.707Z,20.14
2022-07-29T07:45:44.607Z,20.13
2022-07-29T07:48:12.435Z,20.06
2022-07-29T07:50:40.266Z,19.99
2022-07-29T07:53:08.168Z,19.90
2022-07-29T07:56:08.175Z,19.82
2022-07-29T07:58:29.864Z,19.83
2022-07-29T08:00:57.825Z,19.79
2022-07-29T08:03:25.595Z,19.76
2022-07-29T08:05:55.137Z,19.76
2022-07-29T08:08:22.864Z,19.79
2022-07-29T08:10:53.672Z,19.90
2022-07-29T08:13:24.842Z,20.02
2022-07-29T08:15:58.983Z,20.11
2022-07-29T08:18:29.848Z,20.37
2022-07-29T08:20:58.682Z,20.80
2022-07-29T08:23:32.948Z,21.15
2022-07-29T08:26:15.265Z,21.50
2022-07-29T08:28:46.795Z,21.79
2022-07-29T08:31:15.250Z,21.98
2022-07-29T08:33:43.729Z,22.19
2022-07-29T08:36:11.483Z,22.35
2022-07-29T08:38:39.227Z,22.45
2022-07-29T08:41:07.090Z,22.56
2022-07-29T08:43:38.211Z,22.54
2022-07-29T08:46:06.048Z,22.47
2022-07-29T08:48:35.285Z,22.35
2022-07-29T08:51:04.560Z,22.33
2022-07-29T08:53:33.965Z,22.47
2022-07-29T08:56:02.908Z,22.67
2022-07-29T08:58:36.915Z,22.78
2022-07-29T09:01:09.913Z,22.62
2022-07-29T09:03:42.377Z,22.60
2022-07-29T09:06:13.427Z,22.66
2022-07-29T09:08:41.825Z,22.68
2022-07-29T09:11:09.706Z,22.57
2022-07-29T09:13:37.420Z,22.48
2022-07-29T09:16:09.397Z,22.45
2022-07-29T09:18:44.022Z,22.40
2022-07-29T09:21:36.976Z,22.37
2022-07-29T09:24:14.533Z,22.27
2022-07-29T09:26:47.017Z,22.29
2022-07-29T09:29:20.999Z,22.28
2022-07-29T09:31:53.251Z,22.21
2022-07-29T09:34:29.612Z,22.21
2022-07-29T09:36:58.272Z,22.26
2022-07-29T09:39:38.959Z,22.29
2022-07-29T09:42:07.602Z,22.25
2022-07-29T09:44:51.238Z,22.34
2022-07-29T09:47:22.736Z,22.46
2022-07-29T09:50:00.499Z,22.56
2022-07-29T09:52:30.895Z,22.65
2022-07-29T09:55:18.267Z,22.71
2022-07-29T09:57:48.377Z,22.80
2022-07-29T10:00:19.862Z,22.86
2022-07-29T10:02:48.839Z,22.83
2022-07-29T10:05:26.770Z,22.87
2022-07-29T10:08:06.141Z,22.94
2022-07-29T10:10:41.044Z,23.02
2022-07-29T10:13:15.672Z,23.09
2022-07-29T10:15:46.863Z,23.09
2022-07-29T10:18:18.335Z,23.07
2022-07-29T10:20:46.375Z,22.99
2022-07-29T10:23:14.969Z,22.94
2022-07-29T10:25:46.382Z,22.92
2022-07-29T10:28:16.686Z,22.95
2022-07-29T10:30:46.909Z,22.98
2022-07-29T10:33:37.755Z,23.05
2022-07-29T10:37:11.574Z,23.04
2022-07-29T10:40:51.029Z,22.92
2022-07-29T10:43:28.234Z,23.04
2022-07-29T10:46:00.880Z,23.12
2022-07-29T10:48:28.949Z,23.12
2022-07-29T10:51:07.026Z,23.19
2022-07-29T10:53:51.942Z,23.22
2022-07-29T10:56:25.608Z,23.25
2022-07-29T10:59:21.633Z,23.24
2022-07-29T11:01:56.672Z,23.26
2022-07-29T11:04:45.857Z,23.44
2022-07-29T11:07:17.255Z,23.72
2022-07-29T11:09:46.508Z,23.92
2022-07-29T11:12:37.417Z,24.13
2022-07-29T11:15:09.678Z,24.27
2022-07-29T11:17:55.407Z,24.47
2022-07-29T11:23:42.785Z,24.91
2022-07-29T11:26:10.790Z,25.04
2022-07-29T11:28:51.140Z,25.10
2022-07-29T11:31:45.635Z,25.00
2022-07-29T11:34:21.072Z,25.15
2022-07-29T11:37:12.454Z,25.22
2022-07-29T11:39:46.237Z,25.37
2022-07-29T11:45:43.140Z,25.74
2022-07-29T11:48:29.894Z,25.90
2022-07-29T11:51:00.831Z,25.94
2022-07-29T11:53:33.034Z,26.10
2022-07-29T11:56:02.612Z,26.37
2022-07-29T11:58:32.453Z,26.66
2022-07-29T12:01:04.998Z,26.93
2022-07-29T12:03:36.111Z,27.18
2022-07-29T12:06:21.841Z,27.39
2022-07-29T12:07:03.261Z,25.55
2022-07-29T12:08:49.636Z,27.42
2022-07-29T12:11:21.801Z,27.25
2022-07-29T12:13:52.266Z,26.87
2022-07-29T12:16:25.677Z,26.53
2022-07-29T12:18:59.767Z,26.37
2022-07-29T12:21:28.927Z,26.18
2022-07-29T12:24:03.414Z,25.85
2022-07-29T12:26:34.306Z,25.63
2022-07-29T12:29:04.323Z,25.64
2022-07-29T12:31:43.406Z,25.83
2022-07-29T12:34:16.571Z,25.99
2022-07-29T12:36:44.727Z,26.09
2022-07-29T12:39:13.415Z,26.22
2022-07-29T12:41:41.301Z,26.62
2022-07-29T12:44:09.101Z,27.09
2022-07-29T12:46:37.200Z,27.50
2022-07-29T12:49:05.544Z,27.82
2022-07-29T12:51:39.978Z,28.19
2022-07-29T12:54:11.541Z,28.53
2022-07-29T12:56:43.648Z,28.75
2022-07-29T12:59:23.247Z,28.80
2022-07-29T13:01:53.140Z,28.95
2022-07-29T13:04:30.226Z,28.76
2022-07-29T13:07:08.332Z,28.28
2022-07-29T13:09:43.968Z,27.67
2022-07-29T13:12:14.471Z,27.31
2022-07-29T13:14:50.772Z,27.25
2022-07-29T13:17:23.806Z,27.10
2022-07-29T13:20:09.699Z,27.00
2022-07-29T13:22:37.378Z,27.04
2022-07-29T13:25:08.876Z,27.02
2022-07-29T13:27:39.310Z,26.89
2022-07-29T13:30:10.296Z,26.76
2022-07-29T13:32:38.618Z,26.76
2022-07-29T13:35:09.275Z,26.86
2022-07-29T13:37:39.553Z,26.98
2022-07-29T13:40:10.306Z,27.00
2022-07-29T13:42:38.651Z,26.97
2022-07-29T13:45:07.763Z,26.94
2022-07-29T13:47:35.952Z,26.83
2022-07-29T13:50:10.810Z,27.00
2022-07-29T13:52:39.218Z,27.43
2022-07-29T13:55:08.234Z,27.75
2022-07-29T13:57:36.539Z,27.99
2022-07-29T14:00:05.050Z,28.15
2022-07-29T14:02:36.240Z,28.00
2022-07-29T14:05:08.285Z,27.78
2022-07-29T14:07:39.561Z,27.70
2022-07-29T14:10:08.230Z,27.60
2022-07-29T14:12:35.989Z,27.72
2022-07-29T14:15:04.386Z,27.86
2022-07-29T14:17:32.125Z,27.91
2022-07-29T14:19:59.817Z,27.91
2022-07-29T14:22:27.585Z,27.89
2022-07-29T14:24:55.309Z,27.99
2022-07-29T14:27:37.399Z,28.00
2022-07-29T14:30:07.727Z,28.00
2022-07-29T14:32:35.615Z,28.17
2022-07-29T14:35:03.749Z,28.44
2022-07-29T14:37:39.391Z,28.66
2022-07-29T14:40:10.575Z,28.89
2022-07-29T14:42:39.328Z,29.06
2022-07-29T14:45:09.519Z,29.07
2022-07-29T14:47:39.066Z,29.09
2022-07-29T14:50:07.940Z,28.98
2022-07-29T14:52:36.154Z,28.70
2022-07-29T14:55:05.560Z,28.57
2022-07-29T14:57:44.435Z,28.62
2022-07-29T15:00:13.771Z,28.85
2022-07-29T15:03:01.001Z,28.91
2022-07-29T15:05:30.863Z,28.82
2022-07-29T15:08:00.530Z,28.60
2022-07-29T15:10:28.424Z,28.39
2022-07-29T15:12:58.041Z,28.22
2022-07-29T15:15:26.377Z,28.09
2022-07-29T15:17:54.177Z,27.89
2022-07-29T15:20:22.445Z,27.65
2022-07-29T15:22:50.194Z,27.40
2022-07-29T15:25:17.995Z,27.21
2022-07-29T15:27:48.970Z,27.08
2022-07-29T15:30:31.455Z,27.02
2022-07-29T15:33:03.935Z,26.88
2022-07-29T15:35:32.261Z,26.77
2022-07-29T15:38:00.038Z,26.75
2022-07-29T15:40:29.075Z,26.69
2022-07-29T15:42:57.154Z,26.67
2022-07-29T15:45:25.163Z,26.66
2022-07-29T15:47:52.828Z,26.61
2022-07-29T15:50:21.195Z,26.63
2022-07-29T15:52:48.993Z,26.68
2022-07-29T15:55:16.778Z,26.77
2022-07-29T15:57:44.490Z,26.88
2022-07-29T16:00:13.770Z,26.94
2022-07-29T16:02:41.581Z,26.99
2022-07-29T16:05:09.738Z,27.21
2022-07-29T16:07:37.800Z,27.37
2022-07-29T16:10:07.855Z,27.66
2022-07-29T16:12:35.659Z,27.81
2022-07-29T16:15:09.422Z,27.79
2022-07-29T16:17:39.058Z,27.73
2022-07-29T16:20:08.109Z,27.70
2022-07-29T16:22:36.261Z,27.65
2022-07-29T16:25:04.571Z,27.65
2022-07-29T16:27:37.397Z,27.73
2022-07-29T16:30:10.282Z,27.77
2022-07-29T16:32:38.240Z,27.78
2022-07-29T16:35:07.920Z,27.74
2022-07-29T16:37:37.121Z,27.77
2022-07-29T16:40:06.981Z,27.69
2022-07-29T16:42:50.713Z,27.72
2022-07-29T16:45:21.305Z,27.61
2022-07-29T16:47:49.270Z,27.50
2022-07-29T16:50:17.856Z,27.39
2022-07-29T16:52:45.590Z,27.29
2022-07-29T16:55:13.317Z,27.24
2022-07-29T16:57:42.707Z,27.20
2022-07-29T17:00:11.698Z,27.01
2022-07-29T17:02:39.490Z,26.81
2022-07-29T17:05:08.752Z,26.58
2022-07-29T17:07:37.136Z,26.41
2022-07-29T17:10:08.099Z,26.27
2022-07-29T17:12:37.925Z,26.19
2022-07-29T17:15:09.446Z,26.11
2022-07-29T17:17:38.857Z,26.10
2022-07-29T17:20:14.927Z,26.09
2022-07-29T17:22:45.357Z,26.02
2022-07-29T17:25:21.201Z,25.93
2022-07-29T17:27:50.910Z,25.91
2022-07-29T17:30:18.889Z,25.90
2022-07-29T17:32:46.660Z,25.90
2022-07-29T17:35:32.879Z,25.83
2022-07-29T17:38:00.665Z,25.85
2022-07-29T17:40:28.509Z,25.78
2022-07-29T17:42:56.437Z,25.76
2022-07-29T17:45:24.361Z,25.84
2022-07-29T17:47:52.086Z,25.88
2022-07-29T17:50:19.814Z,25.91
2022-07-29T17:52:47.559Z,25.86
2022-07-29T17:55:15.361Z,25.83
2022-07-29T17:57:43.095Z,25.80
2022-07-29T18:00:11.423Z,25.80
2022-07-29T18:02:39.428Z,25.87
2022-07-29T18:05:07.641Z,25.96
2022-07-29T18:07:35.428Z,26.07
2022-07-29T18:10:03.646Z,26.30
2022-07-29T18:12:31.585Z,26.38
2022-07-29T18:14:59.326Z,26.36
2022-07-29T18:17:45.986Z,26.33
2022-07-29T18:20:15.486Z,26.31
2022-07-29T18:22:43.312Z,26.23
2022-07-29T18:25:12.016Z,26.14
2022-07-29T18:27:40.129Z,26.00
2022-07-29T18:30:08.753Z,25.84
2022-07-29T18:32:36.753Z,25.70
2022-07-29T18:35:05.814Z,25.67
2022-07-29T18:38:02.069Z,25.62
2022-07-29T18:40:25.314Z,25.51
2022-07-29T18:42:53.538Z,25.44
2022-07-29T18:45:21.383Z,25.38
2022-07-29T18:47:49.510Z,25.34
2022-07-29T18:50:17.624Z,25.35
2022-07-29T18:52:48.378Z,25.27
2022-07-29T18:55:16.166Z,25.17
2022-07-29T18:57:55.336Z,25.12
2022-07-29T19:00:26.488Z,25.06
2022-07-29T19:02:54.358Z,24.96
2022-07-29T19:05:23.355Z,24.87
2022-07-29T19:07:51.153Z,24.82
2022-07-29T19:10:18.910Z,24.77
2022-07-29T19:12:46.644Z,24.65
2022-07-29T19:15:19.993Z,24.58
2022-07-29T19:17:48.803Z,24.56
2022-07-29T19:20:16.919Z,24.51
2022-07-29T19:22:44.875Z,24.47
2022-07-29T19:25:12.692Z,24.41
2022-07-29T19:27:41.794Z,24.30
2022-07-29T19:30:10.136Z,24.20
2022-07-29T19:32:38.814Z,24.14
2022-07-29T19:35:25.543Z,24.11
2022-07-29T19:37:55.612Z,24.05
2022-07-29T19:40:23.702Z,24.01
2022-07-29T19:42:52.989Z,23.99
2022-07-29T19:45:24.617Z,23.93
2022-07-29T19:47:53.481Z,23.89
2022-07-29T19:50:25.061Z,23.78
2022-07-29T19:52:53.193Z,23.70
2022-07-29T19:55:21.860Z,23.63
2022-07-29T19:57:52.602Z,23.52
2022-07-29T20:00:21.414Z,23.35
2022-07-29T20:02:49.910Z,23.27
2022-07-29T20:05:18.590Z,23.21
2022-07-29T20:07:47.788Z,23.21
2022-07-29T20:10:15.849Z,23.16
2022-07-29T20:12:43.705Z,23.10
2022-07-29T20:15:16.354Z,23.02
2022-07-29T20:17:44.663Z,23.00
2022-07-29T20:20:12.482Z,22.93
2022-07-29T20:22:40.185Z,22.88
2022-07-29T20:25:09.932Z,22.84
2022-07-29T20:27:40.467Z,22.78
2022-07-29T20:30:09.063Z,22.74
2022-07-29T20:32:40.826Z,22.68
2022-07-29T20:35:09.923Z,22.62
2022-07-29T20:37:52.246Z,22.58
2022-07-29T20:40:26.019Z,22.47
2022-07-29T20:42:55.555Z,22.37
2022-07-29T20:45:24.822Z,22.30
2022-07-29T20:47:53.280Z,22.17
2022-07-29T20:50:23.869Z,22.05
2022-07-29T20:52:52.774Z,21.99
2022-07-29T20:55:21.314Z,21.88
2022-07-29T20:57:49.046Z,21.74
2022-07-29T21:00:17.138Z,21.64
2022-07-29T21:02:44.882Z,21.56
2022-07-29T21:05:12.674Z,21.47
2022-07-29T21:07:40.450Z,21.40
2022-07-29T21:10:08.574Z,21.28
2022-07-29T21:12:36.526Z,21.18
2022-07-29T21:15:06.502Z,21.10
2022-07-29T21:17:36.111Z,21.10
2022-07-29T21:20:05.435Z,20.99
2022-07-29T21:22:33.186Z,20.88
2022-07-29T21:25:01.671Z,20.85
2022-07-29T21:27:48.138Z,20.83
2022-07-29T21:30:16.005Z,20.75
2022-07-29T21:32:43.978Z,20.61
2022-07-29T21:35:23.409Z,20.52
2022-07-29T21:37:59.736Z,20.42
2022-07-29T21:40:27.549Z,20.37
2022-07-29T21:42:55.247Z,20.29
2022-07-29T21:45:23.004Z,20.22
2022-07-29T21:47:50.840Z,20.17
2022-07-29T21:50:18.843Z,20.15
2022-07-29T21:52:46.577Z,20.10
2022-07-29T21:55:15.334Z,20.07
2022-07-29T21:57:46.351Z,20.01
2022-07-29T22:00:17.561Z,19.94
2022-07-29T22:02:45.660Z,19.83
2022-07-29T22:05:14.933Z,19.75
2022-07-29T22:07:56.477Z,19.67
2022-07-29T22:10:26.821Z,19.62
2022-07-29T22:12:57.120Z,19.58
2022-07-29T22:15:26.398Z,19.49
2022-07-29T22:17:54.175Z,19.39
2022-07-29T22:20:23.586Z,19.28
2022-07-29T22:22:51.676Z,19.24
2022-07-29T22:25:20.066Z,19.22
2022-07-29T22:27:48.367Z,19.20
2022-07-29T22:30:17.022Z,19.15
2022-07-29T22:32:44.958Z,19.15
2022-07-29T22:35:12.688Z,19.14
2022-07-29T22:37:40.410Z,19.13
2022-07-29T22:40:08.709Z,19.12
2022-07-29T22:42:36.617Z,19.09
2022-07-29T22:45:10.618Z,19.09
2022-07-29T22:47:47.947Z,19.08
2022-07-29T22:50:17.429Z,19.07
2022-07-29T22:52:46.880Z,19.02
2022-07-29T22:55:15.450Z,18.99
2022-07-29T22:57:43.271Z,19.02
2022-07-29T23:00:12.752Z,19.09
2022-07-29T23:02:41.384Z,19.07
2022-07-29T23:05:10.518Z,19.07
2022-07-29T23:07:38.634Z,19.06
2022-07-29T23:10:07.012Z,19.05
2022-07-29T23:12:34.905Z,19.04
2022-07-29T23:15:02.712Z,19.05
2022-07-29T23:17:36.106Z,19.11
2022-07-29T23:20:09.818Z,19.11
2022-07-29T23:22:37.830Z,19.04
2022-07-29T23:25:06.669Z,18.98
2022-07-29T23:27:34.582Z,18.98
2022-07-29T23:30:02.717Z,18.96
2022-07-29T23:32:30.539Z,18.89
2022-07-29T23:34:58.275Z,18.82
2022-07-29T23:37:26.806Z,18.75
2022-07-29T23:39:54.834Z,18.72
2022-07-29T23:42:22.823Z,18.68
2022-07-29T23:44:50.781Z,18.67
2022-07-29T23:47:18.556Z,18.66
2022-07-29T23:49:46.501Z,18.68
2022-07-29T23:52:14.237Z,18.66
2022-07-29T23:54:42.139Z,18.67
2022-07-29T23:57:09.873Z,18.66
2022-07-29T23:59:37.606Z,18.64
